sensor_id;sensor_type;location;lat;lon;timestamp;temperature;humidity
4985;DHT22;2509;49.902;8.600;2022-09-09T00:02:21;17.90;99.90
4985;DHT22;2509;49.902;8.600;2022-09-09T00:05:29;17.90;99.90
4985;DHT22;2509;49.902;8.600;2022-09-09T00:08:42;17.90;99.90
4985;DHT22;2509;49.902;8.600;2022-09-09T00:11:49;17.80;99.90
4985;DHT22;2509;49.902;8.600;2022-09-09T00:14:55;17.70;99.90
4985;DHT22;2509;49.902;8.600;2022-09-09T00:18:01;17.70;99.90
4985;DHT22;2509;49.902;8.600;2022-09-09T00:21:10;17.60;99.90
4985;DHT22;2509;49.902;8.600;2022-09-09T00:24:23;17.60;99.90
4985;DHT22;2509;49.902;8.600;2022-09-09T00:27:31;17.60;99.90
4985;DHT22;2509;49.902;8.600;2022-09-09T00:30:38;17.50;99.90
4985;DHT22;2509;49.902;8.600;2022-09-09T00:33:41;17.50;99.90
4985;DHT22;2509;49.902;8.600;2022-09-09T00:36:48;17.50;99.90
4985;DHT22;2509;49.902;8.600;2022-09-09T00:39:53;17.50;99.90
4985;DHT22;2509;49.902;8.600;2022-09-09T00:43:16;17.50;99.90
4985;DHT22;2509;49.902;8.600;2022-09-09T00:46:44;17.40;99.90
4985;DHT22;2509;49.902;8.600;2022-09-09T00:49:56;17.40;99.90
4985;DHT22;2509;49.902;8.600;2022-09-09T00:56:34;17.50;99.90
4985;DHT22;2509;49.902;8.600;2022-09-09T00:59:47;17.50;99.90
4985;DHT22;2509;49.902;8.600;2022-09-09T01:03:08;17.40;99.90
4985;DHT22;2509;49.902;8.600;2022-09-09T01:06:16;17.40;99.90
4985;DHT22;2509;49.902;8.600;2022-09-09T01:09:27;17.40;99.90
4985;DHT22;2509;49.902;8.600;2022-09-09T01:12:38;17.40;99.90
4985;DHT22;2509;49.902;8.600;2022-09-09T01:15:44;17.50;99.90
4985;DHT22;2509;49.902;8.600;2022-09-09T01:18:51;17.50;99.90
4985;DHT22;2509;49.902;8.600;2022-09-09T01:22:00;17.50;99.90
4985;DHT22;2509;49.902;8.600;2022-09-09T01:25:26;17.40;99.90
4985;DHT22;2509;49.902;8.600;2022-09-09T01:28:31;17.40;99.90
4985;DHT22;2509;49.902;8.600;2022-09-09T01:31:37;17.30;99.90
4985;DHT22;2509;49.902;8.600;2022-09-09T01:34:41;17.30;99.90
4985;DHT22;2509;49.902;8.600;2022-09-09T01:37:43;17.30;99.90
4985;DHT22;2509;49.902;8.600;2022-09-09T01:40:45;17.30;99.90
4985;DHT22;2509;49.902;8.600;2022-09-09T01:43:48;17.30;99.90
4985;DHT22;2509;49.902;8.600;2022-09-09T01:46:52;17.30;99.90
4985;DHT22;2509;49.902;8.600;2022-09-09T01:49:53;17.30;99.90
4985;DHT22;2509;49.902;8.600;2022-09-09T01:52:58;17.30;99.90
4985;DHT22;2509;49.902;8.600;2022-09-09T01:56:07;17.30;99.90
4985;DHT22;2509;49.902;8.600;2022-09-09T01:59:21;17.30;99.90
4985;DHT22;2509;49.902;8.600;2022-09-09T02:02:30;17.30;99.90
4985;DHT22;2509;49.902;8.600;2022-09-09T02:05:36;17.30;99.90
4985;DHT22;2509;49.902;8.600;2022-09-09T02:08:42;17.30;99.90
4985;DHT22;2509;49.902;8.600;2022-09-09T02:11:47;17.30;99.90
4985;DHT22;2509;49.902;8.600;2022-09-09T02:14:56;17.30;99.90
4985;DHT22;2509;49.902;8.600;2022-09-09T02:18:01;17.30;99.90
4985;DHT22;2509;49.902;8.600;2022-09-09T02:21:08;17.30;99.90
4985;DHT22;2509;49.902;8.600;2022-09-09T02:24:14;17.30;99.90
4985;DHT22;2509;49.902;8.600;2022-09-09T02:27:18;17.30;99.90
4985;DHT22;2509;49.902;8.600;2022-09-09T02:30:23;17.40;99.90
4985;DHT22;2509;49.902;8.600;2022-09-09T02:33:28;17.40;99.90
4985;DHT22;2509;49.902;8.600;2022-09-09T02:36:32;17.40;99.90
4985;DHT22;2509;49.902;8.600;2022-09-09T02:39:35;17.50;99.90
4985;DHT22;2509;49.902;8.600;2022-09-09T02:42:39;17.50;99.90
4985;DHT22;2509;49.902;8.600;2022-09-09T02:45:49;17.50;99.90
4985;DHT22;2509;49.902;8.600;2022-09-09T02:48:59;17.60;99.90
4985;DHT22;2509;49.902;8.600;2022-09-09T02:52:04;17.60;99.90
4985;DHT22;2509;49.902;8.600;2022-09-09T02:55:12;17.60;99.90
4985;DHT22;2509;49.902;8.600;2022-09-09T02:58:18;17.60;99.90
4985;DHT22;2509;49.902;8.600;2022-09-09T03:01:22;17.60;99.90
4985;DHT22;2509;49.902;8.600;2022-09-09T03:04:24;17.60;99.90
4985;DHT22;2509;49.902;8.600;2022-09-09T03:07:26;17.60;99.90
4985;DHT22;2509;49.902;8.600;2022-09-09T03:10:27;17.60;99.90
4985;DHT22;2509;49.902;8.600;2022-09-09T03:13:29;17.60;99.90
4985;DHT22;2509;49.902;8.600;2022-09-09T03:16:32;17.50;99.90
4985;DHT22;2509;49.902;8.600;2022-09-09T03:19:34;17.50;99.90
4985;DHT22;2509;49.902;8.600;2022-09-09T03:22:38;17.50;99.90
4985;DHT22;2509;49.902;8.600;2022-09-09T03:25:46;17.50;99.90
4985;DHT22;2509;49.902;8.600;2022-09-09T03:28:48;17.40;99.90
4985;DHT22;2509;49.902;8.600;2022-09-09T03:31:54;17.40;99.90
4985;DHT22;2509;49.902;8.600;2022-09-09T03:34:55;17.40;99.90
4985;DHT22;2509;49.902;8.600;2022-09-09T03:37:57;17.40;99.90
4985;DHT22;2509;49.902;8.600;2022-09-09T03:41:01;17.40;99.90
4985;DHT22;2509;49.902;8.600;2022-09-09T03:44:03;17.30;99.90
4985;DHT22;2509;49.902;8.600;2022-09-09T03:47:06;17.30;99.90
4985;DHT22;2509;49.902;8.600;2022-09-09T03:50:09;17.30;99.90
4985;DHT22;2509;49.902;8.600;2022-09-09T03:53:11;17.30;99.90
4985;DHT22;2509;49.902;8.600;2022-09-09T03:56:13;17.20;99.90
4985;DHT22;2509;49.902;8.600;2022-09-09T03:59:15;17.20;99.90
4985;DHT22;2509;49.902;8.600;2022-09-09T04:02:19;17.20;99.90
4985;DHT22;2509;49.902;8.600;2022-09-09T04:05:21;17.20;99.90
4985;DHT22;2509;49.902;8.600;2022-09-09T04:08:23;17.10;99.90
4985;DHT22;2509;49.902;8.600;2022-09-09T04:11:26;17.10;99.90
4985;DHT22;2509;49.902;8.600;2022-09-09T04:14:27;17.10;99.90
4985;DHT22;2509;49.902;8.600;2022-09-09T04:17:31;17.10;99.90
4985;DHT22;2509;49.902;8.600;2022-09-09T04:20:33;17.00;99.90
4985;DHT22;2509;49.902;8.600;2022-09-09T04:23:35;17.10;99.90
4985;DHT22;2509;49.902;8.600;2022-09-09T04:26:38;17.00;99.90
4985;DHT22;2509;49.902;8.600;2022-09-09T04:29:40;17.00;99.90
4985;DHT22;2509;49.902;8.600;2022-09-09T04:32:43;17.10;99.90
4985;DHT22;2509;49.902;8.600;2022-09-09T04:35:46;17.10;99.90
4985;DHT22;2509;49.902;8.600;2022-09-09T04:38:48;17.10;99.90
4985;DHT22;2509;49.902;8.600;2022-09-09T04:41:50;17.10;99.90
4985;DHT22;2509;49.902;8.600;2022-09-09T04:44:52;17.10;99.90
4985;DHT22;2509;49.902;8.600;2022-09-09T04:47:56;17.00;99.90
4985;DHT22;2509;49.902;8.600;2022-09-09T04:50:59;17.00;99.90
4985;DHT22;2509;49.902;8.600;2022-09-09T04:54:01;17.00;99.90
4985;DHT22;2509;49.902;8.600;2022-09-09T04:57:03;16.90;99.90
4985;DHT22;2509;49.902;8.600;2022-09-09T05:00:06;16.90;99.90
4985;DHT22;2509;49.902;8.600;2022-09-09T05:03:10;16.80;99.90
4985;DHT22;2509;49.902;8.600;2022-09-09T05:06:14;16.80;99.90
4985;DHT22;2509;49.902;8.600;2022-09-09T05:09:16;16.70;99.90
4985;DHT22;2509;49.902;8.600;2022-09-09T05:12:18;16.70;99.90
4985;DHT22;2509;49.902;8.600;2022-09-09T05:15:20;16.70;99.90
4985;DHT22;2509;49.902;8.600;2022-09-09T05:18:23;16.60;99.90
4985;DHT22;2509;49.902;8.600;2022-09-09T05:21:25;16.70;99.90
4985;DHT22;2509;49.902;8.600;2022-09-09T05:24:28;16.60;99.90
4985;DHT22;2509;49.902;8.600;2022-09-09T05:27:33;16.60;99.90
4985;DHT22;2509;49.902;8.600;2022-09-09T05:30:35;16.60;99.90
4985;DHT22;2509;49.902;8.600;2022-09-09T05:33:39;16.60;99.90
4985;DHT22;2509;49.902;8.600;2022-09-09T05:36:41;16.60;99.90
4985;DHT22;2509;49.902;8.600;2022-09-09T05:39:43;16.70;99.90
4985;DHT22;2509;49.902;8.600;2022-09-09T05:42:45;16.70;99.90
4985;DHT22;2509;49.902;8.600;2022-09-09T05:45:47;16.70;99.90
4985;DHT22;2509;49.902;8.600;2022-09-09T05:48:51;16.70;99.90
4985;DHT22;2509;49.902;8.600;2022-09-09T05:51:53;16.60;99.90
4985;DHT22;2509;49.902;8.600;2022-09-09T05:54:59;16.60;99.90
4985;DHT22;2509;49.902;8.600;2022-09-09T05:58:01;16.60;99.90
4985;DHT22;2509;49.902;8.600;2022-09-09T06:01:05;16.60;99.90
4985;DHT22;2509;49.902;8.600;2022-09-09T06:04:08;16.70;99.90
4985;DHT22;2509;49.902;8.600;2022-09-09T06:07:10;16.70;99.90
4985;DHT22;2509;49.902;8.600;2022-09-09T06:10:12;16.80;99.90
4985;DHT22;2509;49.902;8.600;2022-09-09T06:13:14;16.90;99.90
4985;DHT22;2509;49.902;8.600;2022-09-09T06:16:18;17.00;99.90
4985;DHT22;2509;49.902;8.600;2022-09-09T06:19:21;17.10;99.90
4985;DHT22;2509;49.902;8.600;2022-09-09T06:22:24;17.20;99.90
4985;DHT22;2509;49.902;8.600;2022-09-09T06:25:26;17.30;99.90
4985;DHT22;2509;49.902;8.600;2022-09-09T06:28:28;17.30;99.90
4985;DHT22;2509;49.902;8.600;2022-09-09T06:31:31;17.30;99.90
4985;DHT22;2509;49.902;8.600;2022-09-09T06:34:35;17.40;99.90
4985;DHT22;2509;49.902;8.600;2022-09-09T06:37:37;17.50;99.90
4985;DHT22;2509;49.902;8.600;2022-09-09T06:40:39;17.50;99.90
4985;DHT22;2509;49.902;8.600;2022-09-09T06:43:41;17.60;99.90
4985;DHT22;2509;49.902;8.600;2022-09-09T06:46:43;17.70;99.90
4985;DHT22;2509;49.902;8.600;2022-09-09T06:49:48;17.70;99.90
4985;DHT22;2509;49.902;8.600;2022-09-09T06:52:50;17.80;99.90
4985;DHT22;2509;49.902;8.600;2022-09-09T06:55:53;17.80;99.90
4985;DHT22;2509;49.902;8.600;2022-09-09T06:58:56;17.80;99.90
4985;DHT22;2509;49.902;8.600;2022-09-09T07:01:58;17.80;99.90
4985;DHT22;2509;49.902;8.600;2022-09-09T07:05:02;17.90;99.90
4985;DHT22;2509;49.902;8.600;2022-09-09T07:08:04;17.90;99.90
4985;DHT22;2509;49.902;8.600;2022-09-09T07:11:07;17.90;99.90
4985;DHT22;2509;49.902;8.600;2022-09-09T07:14:10;18.00;99.90
4985;DHT22;2509;49.902;8.600;2022-09-09T07:17:13;18.10;99.90
4985;DHT22;2509;49.902;8.600;2022-09-09T07:20:16;18.10;99.90
4985;DHT22;2509;49.902;8.600;2022-09-09T07:23:18;18.10;99.90
4985;DHT22;2509;49.902;8.600;2022-09-09T07:26:21;18.10;99.90
4985;DHT22;2509;49.902;8.600;2022-09-09T07:29:23;18.10;99.90
4985;DHT22;2509;49.902;8.600;2022-09-09T07:32:25;18.20;99.90
4985;DHT22;2509;49.902;8.600;2022-09-09T07:35:28;18.20;99.90
4985;DHT22;2509;49.902;8.600;2022-09-09T07:38:30;18.20;99.90
4985;DHT22;2509;49.902;8.600;2022-09-09T07:41:34;18.40;99.90
4985;DHT22;2509;49.902;8.600;2022-09-09T07:44:36;18.40;99.90
4985;DHT22;2509;49.902;8.600;2022-09-09T07:47:39;18.40;99.90
4985;DHT22;2509;49.902;8.600;2022-09-09T07:50:44;18.50;99.90
4985;DHT22;2509;49.902;8.600;2022-09-09T07:53:46;18.60;99.90
4985;DHT22;2509;49.902;8.600;2022-09-09T07:56:48;18.70;99.90
4985;DHT22;2509;49.902;8.600;2022-09-09T07:59:50;18.80;99.90
4985;DHT22;2509;49.902;8.600;2022-09-09T08:02:52;18.80;99.90
4985;DHT22;2509;49.902;8.600;2022-09-09T08:06:01;18.90;99.90
4985;DHT22;2509;49.902;8.600;2022-09-09T08:09:04;19.00;99.90
4985;DHT22;2509;49.902;8.600;2022-09-09T08:12:06;19.10;99.90
4985;DHT22;2509;49.902;8.600;2022-09-09T08:15:09;19.00;99.90
4985;DHT22;2509;49.902;8.600;2022-09-09T08:18:11;19.00;99.90
4985;DHT22;2509;49.902;8.600;2022-09-09T08:21:15;19.00;99.90
4985;DHT22;2509;49.902;8.600;2022-09-09T08:24:18;19.00;99.90
4985;DHT22;2509;49.902;8.600;2022-09-09T08:27:20;19.00;99.90
4985;DHT22;2509;49.902;8.600;2022-09-09T08:30:22;19.10;99.90
4985;DHT22;2509;49.902;8.600;2022-09-09T08:33:24;19.20;99.90
4985;DHT22;2509;49.902;8.600;2022-09-09T08:36:29;19.30;99.90
4985;DHT22;2509;49.902;8.600;2022-09-09T08:39:31;19.40;99.90
4985;DHT22;2509;49.902;8.600;2022-09-09T08:42:38;19.40;99.90
4985;DHT22;2509;49.902;8.600;2022-09-09T08:45:49;19.30;99.90
4985;DHT22;2509;49.902;8.600;2022-09-09T08:48:56;19.40;99.90
4985;DHT22;2509;49.902;8.600;2022-09-09T08:52:02;19.50;99.90
4985;DHT22;2509;49.902;8.600;2022-09-09T08:55:17;19.50;99.90
4985;DHT22;2509;49.902;8.600;2022-09-09T08:58:25;19.40;99.90
4985;DHT22;2509;49.902;8.600;2022-09-09T09:01:44;19.40;99.90
4985;DHT22;2509;49.902;8.600;2022-09-09T09:04:58;19.40;99.90
4985;DHT22;2509;49.902;8.600;2022-09-09T09:08:12;19.30;99.90
4985;DHT22;2509;49.902;8.600;2022-09-09T09:11:18;19.30;99.90
4985;DHT22;2509;49.902;8.600;2022-09-09T09:14:21;19.20;99.90
4985;DHT22;2509;49.902;8.600;2022-09-09T09:17:26;19.20;99.90
4985;DHT22;2509;49.902;8.600;2022-09-09T09:20:38;19.20;99.90
4985;DHT22;2509;49.902;8.600;2022-09-09T09:23:48;19.10;99.90
4985;DHT22;2509;49.902;8.600;2022-09-09T09:26:54;19.00;99.90
4985;DHT22;2509;49.902;8.600;2022-09-09T09:29:57;19.20;99.90
4985;DHT22;2509;49.902;8.600;2022-09-09T09:33:01;19.60;99.90
4985;DHT22;2509;49.902;8.600;2022-09-09T09:36:04;20.00;99.90
4985;DHT22;2509;49.902;8.600;2022-09-09T09:39:09;20.50;99.90
4985;DHT22;2509;49.902;8.600;2022-09-09T09:42:13;20.90;99.90
4985;DHT22;2509;49.902;8.600;2022-09-09T09:45:18;21.00;99.90
4985;DHT22;2509;49.902;8.600;2022-09-09T09:48:22;20.90;99.90
4985;DHT22;2509;49.902;8.600;2022-09-09T09:51:24;20.80;99.90
4985;DHT22;2509;49.902;8.600;2022-09-09T09:54:30;20.80;99.90
4985;DHT22;2509;49.902;8.600;2022-09-09T09:57:33;21.10;99.90
4985;DHT22;2509;49.902;8.600;2022-09-09T10:00:35;21.70;99.90
4985;DHT22;2509;49.902;8.600;2022-09-09T10:03:37;22.00;99.90
4985;DHT22;2509;49.902;8.600;2022-09-09T10:06:41;22.20;99.90
4985;DHT22;2509;49.902;8.600;2022-09-09T10:09:45;22.20;99.90
4985;DHT22;2509;49.902;8.600;2022-09-09T10:12:57;21.90;99.90
4985;DHT22;2509;49.902;8.600;2022-09-09T10:16:19;21.80;99.90
4985;DHT22;2509;49.902;8.600;2022-09-09T10:19:30;21.60;99.90
4985;DHT22;2509;49.902;8.600;2022-09-09T10:22:33;21.70;99.90
4985;DHT22;2509;49.902;8.600;2022-09-09T10:25:49;21.90;99.90
4985;DHT22;2509;49.902;8.600;2022-09-09T10:29:05;22.30;99.90
4985;DHT22;2509;49.902;8.600;2022-09-09T10:32:29;22.50;99.90
4985;DHT22;2509;49.902;8.600;2022-09-09T10:35:35;22.90;99.90
4985;DHT22;2509;49.902;8.600;2022-09-09T10:38:41;22.80;99.90
4985;DHT22;2509;49.902;8.600;2022-09-09T10:41:52;22.40;99.90
4985;DHT22;2509;49.902;8.600;2022-09-09T10:45:03;22.00;99.90
4985;DHT22;2509;49.902;8.600;2022-09-09T10:48:22;21.70;99.90
4985;DHT22;2509;49.902;8.600;2022-09-09T10:51:36;22.10;99.90
4985;DHT22;2509;49.902;8.600;2022-09-09T10:54:50;22.40;99.90
4985;DHT22;2509;49.902;8.600;2022-09-09T10:57:58;22.70;99.90
4985;DHT22;2509;49.902;8.600;2022-09-09T11:01:10;22.80;99.90
4985;DHT22;2509;49.902;8.600;2022-09-09T11:04:19;23.00;99.90
4985;DHT22;2509;49.902;8.600;2022-09-09T11:07:28;23.00;99.90
4985;DHT22;2509;49.902;8.600;2022-09-09T11:10:37;22.90;99.90
4985;DHT22;2509;49.902;8.600;2022-09-09T11:13:47;23.00;99.90
4985;DHT22;2509;49.902;8.600;2022-09-09T11:16:53;23.00;99.90
4985;DHT22;2509;49.902;8.600;2022-09-09T11:19:57;22.90;99.90
4985;DHT22;2509;49.902;8.600;2022-09-09T11:23:02;23.10;99.90
4985;DHT22;2509;49.902;8.600;2022-09-09T11:26:07;23.40;99.90
4985;DHT22;2509;49.902;8.600;2022-09-09T11:33:23;24.40;97.30
4985;DHT22;2509;49.902;8.600;2022-09-09T11:37:13;25.20;95.30
4985;DHT22;2509;49.902;8.600;2022-09-09T11:40:45;26.20;95.20
4985;DHT22;2509;49.902;8.600;2022-09-09T11:44:18;26.80;93.50
4985;DHT22;2509;49.902;8.600;2022-09-09T11:47:37;26.90;92.40
4985;DHT22;2509;49.902;8.600;2022-09-09T11:50:40;27.10;93.30
4985;DHT22;2509;49.902;8.600;2022-09-09T11:54:27;26.30;94.20
4985;DHT22;2509;49.902;8.600;2022-09-09T11:57:26;25.10;96.20
4985;DHT22;2509;49.902;8.600;2022-09-09T12:00:43;24.40;98.30
4985;DHT22;2509;49.902;8.600;2022-09-09T12:04:14;24.70;97.90
4985;DHT22;2509;49.902;8.600;2022-09-09T12:07:37;24.60;97.70
4985;DHT22;2509;49.902;8.600;2022-09-09T12:10:54;24.20;98.50
4985;DHT22;2509;49.902;8.600;2022-09-09T12:14:01;23.80;99.70
4985;DHT22;2509;49.902;8.600;2022-09-09T12:17:17;23.80;99.90
4985;DHT22;2509;49.902;8.600;2022-09-09T12:20:37;24.60;99.90
4985;DHT22;2509;49.902;8.600;2022-09-09T12:23:45;25.10;98.70
4985;DHT22;2509;49.902;8.600;2022-09-09T12:27:07;24.50;98.60
4985;DHT22;2509;49.902;8.600;2022-09-09T12:31:00;23.70;99.90
4985;DHT22;2509;49.902;8.600;2022-09-09T12:34:23;23.10;99.90
4985;DHT22;2509;49.902;8.600;2022-09-09T12:37:32;22.70;99.90
4985;DHT22;2509;49.902;8.600;2022-09-09T12:40:34;22.50;99.90
4985;DHT22;2509;49.902;8.600;2022-09-09T12:43:36;22.30;99.90
4985;DHT22;2509;49.902;8.600;2022-09-09T12:46:42;22.00;99.90
4985;DHT22;2509;49.902;8.600;2022-09-09T12:49:44;22.00;99.90
4985;DHT22;2509;49.902;8.600;2022-09-09T12:52:47;21.90;99.90
4985;DHT22;2509;49.902;8.600;2022-09-09T12:55:51;21.90;99.90
4985;DHT22;2509;49.902;8.600;2022-09-09T12:58:55;21.90;99.90
4985;DHT22;2509;49.902;8.600;2022-09-09T13:02:00;21.80;99.90
4985;DHT22;2509;49.902;8.600;2022-09-09T13:05:14;21.60;99.90
4985;DHT22;2509;49.902;8.600;2022-09-09T13:08:17;21.40;98.90
4985;DHT22;2509;49.902;8.600;2022-09-09T13:11:23;21.30;99.10
4985;DHT22;2509;49.902;8.600;2022-09-09T13:14:29;21.10;99.40
4985;DHT22;2509;49.902;8.600;2022-09-09T13:17:34;20.80;99.50
4985;DHT22;2509;49.902;8.600;2022-09-09T13:20:36;20.70;99.90
4985;DHT22;2509;49.902;8.600;2022-09-09T13:23:38;20.70;99.90
4985;DHT22;2509;49.902;8.600;2022-09-09T13:26:40;20.70;99.90
4985;DHT22;2509;49.902;8.600;2022-09-09T13:29:51;20.70;99.90
4985;DHT22;2509;49.902;8.600;2022-09-09T13:33:20;20.50;99.90
4985;DHT22;2509;49.902;8.600;2022-09-09T13:36:30;20.40;99.90
4985;DHT22;2509;49.902;8.600;2022-09-09T13:39:33;20.40;99.90
4985;DHT22;2509;49.902;8.600;2022-09-09T13:42:39;20.40;99.90
4985;DHT22;2509;49.902;8.600;2022-09-09T13:45:52;20.60;99.90
4985;DHT22;2509;49.902;8.600;2022-09-09T13:48:59;21.20;99.90
4985;DHT22;2509;49.902;8.600;2022-09-09T13:52:08;22.40;99.90
4985;DHT22;2509;49.902;8.600;2022-09-09T13:55:10;23.50;97.50
4985;DHT22;2509;49.902;8.600;2022-09-09T13:58:15;24.50;95.40
4985;DHT22;2509;49.902;8.600;2022-09-09T14:01:19;25.10;94.50
4985;DHT22;2509;49.902;8.600;2022-09-09T14:04:22;24.80;94.80
4985;DHT22;2509;49.902;8.600;2022-09-09T14:07:24;23.90;95.10
4985;DHT22;2509;49.902;8.600;2022-09-09T14:10:26;23.00;96.70
4985;DHT22;2509;49.902;8.600;2022-09-09T14:13:28;22.70;98.00
4985;DHT22;2509;49.902;8.600;2022-09-09T14:16:30;22.50;98.90
4985;DHT22;2509;49.902;8.600;2022-09-09T14:19:33;22.00;99.90
4985;DHT22;2509;49.902;8.600;2022-09-09T14:22:35;21.70;99.90
4985;DHT22;2509;49.902;8.600;2022-09-09T14:25:40;21.50;99.90
4985;DHT22;2509;49.902;8.600;2022-09-09T14:28:42;21.30;99.90
4985;DHT22;2509;49.902;8.600;2022-09-09T14:31:44;21.30;99.90
4985;DHT22;2509;49.902;8.600;2022-09-09T14:34:47;21.20;99.90
4985;DHT22;2509;49.902;8.600;2022-09-09T14:37:50;21.20;99.90
4985;DHT22;2509;49.902;8.600;2022-09-09T14:40:52;21.20;99.90
4985;DHT22;2509;49.902;8.600;2022-09-09T14:43:53;21.00;99.90
4985;DHT22;2509;49.902;8.600;2022-09-09T14:46:55;20.90;99.90
4985;DHT22;2509;49.902;8.600;2022-09-09T14:49:58;21.00;99.90
4985;DHT22;2509;49.902;8.600;2022-09-09T14:53:01;21.00;99.90
4985;DHT22;2509;49.902;8.600;2022-09-09T14:56:07;21.00;99.90
4985;DHT22;2509;49.902;8.600;2022-09-09T14:59:09;21.10;99.90
4985;DHT22;2509;49.902;8.600;2022-09-09T15:02:11;21.10;99.90
4985;DHT22;2509;49.902;8.600;2022-09-09T15:05:15;21.10;99.90
4985;DHT22;2509;49.902;8.600;2022-09-09T15:08:17;21.10;99.90
4985;DHT22;2509;49.902;8.600;2022-09-09T15:11:20;21.10;99.90
4985;DHT22;2509;49.902;8.600;2022-09-09T15:14:24;21.10;99.90
4985;DHT22;2509;49.902;8.600;2022-09-09T15:17:26;21.10;99.90
4985;DHT22;2509;49.902;8.600;2022-09-09T15:20:29;21.10;99.90
4985;DHT22;2509;49.902;8.600;2022-09-09T15:23:31;21.10;99.90
4985;DHT22;2509;49.902;8.600;2022-09-09T15:26:33;21.10;99.90
4985;DHT22;2509;49.902;8.600;2022-09-09T15:29:35;21.20;99.90
4985;DHT22;2509;49.902;8.600;2022-09-09T15:32:38;21.20;99.90
4985;DHT22;2509;49.902;8.600;2022-09-09T15:35:41;21.20;99.90
4985;DHT22;2509;49.902;8.600;2022-09-09T15:38:43;21.40;99.90
4985;DHT22;2509;49.902;8.600;2022-09-09T15:41:47;21.50;99.90
4985;DHT22;2509;49.902;8.600;2022-09-09T15:44:49;21.60;99.90
4985;DHT22;2509;49.902;8.600;2022-09-09T15:47:50;21.70;99.90
4985;DHT22;2509;49.902;8.600;2022-09-09T15:51:01;21.70;99.90
4985;DHT22;2509;49.902;8.600;2022-09-09T15:54:04;21.50;99.90
4985;DHT22;2509;49.902;8.600;2022-09-09T15:57:07;21.30;99.90
4985;DHT22;2509;49.902;8.600;2022-09-09T16:00:11;21.10;99.90
4985;DHT22;2509;49.902;8.600;2022-09-09T16:03:14;20.90;99.90
4985;DHT22;2509;49.902;8.600;2022-09-09T16:06:19;20.80;99.90
4985;DHT22;2509;49.902;8.600;2022-09-09T16:09:21;20.70;99.90
4985;DHT22;2509;49.902;8.600;2022-09-09T16:12:23;20.70;99.90
4985;DHT22;2509;49.902;8.600;2022-09-09T16:15:25;20.50;99.90
4985;DHT22;2509;49.902;8.600;2022-09-09T16:18:33;20.50;99.90
4985;DHT22;2509;49.902;8.600;2022-09-09T16:21:39;20.50;99.90
4985;DHT22;2509;49.902;8.600;2022-09-09T16:24:41;20.50;99.90
4985;DHT22;2509;49.902;8.600;2022-09-09T16:27:44;20.40;99.90
4985;DHT22;2509;49.902;8.600;2022-09-09T16:30:46;20.20;99.90
4985;DHT22;2509;49.902;8.600;2022-09-09T16:33:49;20.20;99.90
4985;DHT22;2509;49.902;8.600;2022-09-09T16:36:52;20.10;99.90
4985;DHT22;2509;49.902;8.600;2022-09-09T16:39:54;20.00;99.90
4985;DHT22;2509;49.902;8.600;2022-09-09T16:42:55;20.00;99.90
4985;DHT22;2509;49.902;8.600;2022-09-09T16:45:57;19.80;99.90
4985;DHT22;2509;49.902;8.600;2022-09-09T16:49:02;19.70;99.90
4985;DHT22;2509;49.902;8.600;2022-09-09T16:52:05;19.60;99.90
4985;DHT22;2509;49.902;8.600;2022-09-09T16:55:08;19.60;99.90
4985;DHT22;2509;49.902;8.600;2022-09-09T16:58:10;19.50;99.90
4985;DHT22;2509;49.902;8.600;2022-09-09T17:01:12;19.40;99.90
4985;DHT22;2509;49.902;8.600;2022-09-09T17:04:16;19.40;99.90
4985;DHT22;2509;49.902;8.600;2022-09-09T17:07:22;19.30;99.90
4985;DHT22;2509;49.902;8.600;2022-09-09T17:10:24;19.30;99.90
4985;DHT22;2509;49.902;8.600;2022-09-09T17:13:26;19.30;99.90
4985;DHT22;2509;49.902;8.600;2022-09-09T17:16:30;19.30;99.90
4985;DHT22;2509;49.902;8.600;2022-09-09T17:19:34;19.20;99.90
4985;DHT22;2509;49.902;8.600;2022-09-09T17:22:37;19.10;99.90
4985;DHT22;2509;49.902;8.600;2022-09-09T17:25:39;19.00;99.90
4985;DHT22;2509;49.902;8.600;2022-09-09T17:28:41;18.90;99.90
4985;DHT22;2509;49.902;8.600;2022-09-09T17:31:43;18.70;99.90
4985;DHT22;2509;49.902;8.600;2022-09-09T17:34:45;18.50;99.90
4985;DHT22;2509;49.902;8.600;2022-09-09T17:37:48;18.30;99.90
4985;DHT22;2509;49.902;8.600;2022-09-09T17:40:50;17.80;99.90
4985;DHT22;2509;49.902;8.600;2022-09-09T17:43:52;17.40;99.90
4985;DHT22;2509;49.902;8.600;2022-09-09T17:46:54;17.00;99.90
4985;DHT22;2509;49.902;8.600;2022-09-09T17:49:56;16.70;99.90
4985;DHT22;2509;49.902;8.600;2022-09-09T17:53:00;16.50;99.90
4985;DHT22;2509;49.902;8.600;2022-09-09T17:56:03;16.40;99.90
4985;DHT22;2509;49.902;8.600;2022-09-09T17:59:07;16.40;99.90
4985;DHT22;2509;49.902;8.600;2022-09-09T18:02:11;16.30;99.90
4985;DHT22;2509;49.902;8.600;2022-09-09T18:05:12;16.20;99.90
4985;DHT22;2509;49.902;8.600;2022-09-09T18:08:17;16.20;99.90
4985;DHT22;2509;49.902;8.600;2022-09-09T18:11:21;16.20;99.90
4985;DHT22;2509;49.902;8.600;2022-09-09T18:14:25;16.30;99.90
4985;DHT22;2509;49.902;8.600;2022-09-09T18:17:28;16.20;99.90
4985;DHT22;2509;49.902;8.600;2022-09-09T18:20:30;16.30;99.90
4985;DHT22;2509;49.902;8.600;2022-09-09T18:23:35;16.30;99.90
4985;DHT22;2509;49.902;8.600;2022-09-09T18:26:37;16.30;99.90
4985;DHT22;2509;49.902;8.600;2022-09-09T18:29:39;16.30;99.90
4985;DHT22;2509;49.902;8.600;2022-09-09T18:32:41;16.30;99.90
4985;DHT22;2509;49.902;8.600;2022-09-09T18:35:43;16.20;99.90
4985;DHT22;2509;49.902;8.600;2022-09-09T18:38:47;16.10;99.90
4985;DHT22;2509;49.902;8.600;2022-09-09T18:41:52;16.10;99.90
4985;DHT22;2509;49.902;8.600;2022-09-09T18:44:54;16.10;99.90
4985;DHT22;2509;49.902;8.600;2022-09-09T18:47:56;16.00;99.90
4985;DHT22;2509;49.902;8.600;2022-09-09T18:51:01;16.00;99.90
4985;DHT22;2509;49.902;8.600;2022-09-09T18:54:06;15.80;99.90
4985;DHT22;2509;49.902;8.600;2022-09-09T18:57:08;15.70;99.90
4985;DHT22;2509;49.902;8.600;2022-09-09T19:00:11;15.60;99.90
4985;DHT22;2509;49.902;8.600;2022-09-09T19:03:13;15.50;99.90
4985;DHT22;2509;49.902;8.600;2022-09-09T19:06:16;15.50;99.90
4985;DHT22;2509;49.902;8.600;2022-09-09T19:09:19;15.50;99.90
4985;DHT22;2509;49.902;8.600;2022-09-09T19:12:21;15.50;99.90
4985;DHT22;2509;49.902;8.600;2022-09-09T19:15:23;15.60;99.90
4985;DHT22;2509;49.902;8.600;2022-09-09T19:18:25;15.60;99.90
4985;DHT22;2509;49.902;8.600;2022-09-09T19:21:28;15.60;99.90
4985;DHT22;2509;49.902;8.600;2022-09-09T19:24:32;15.60;99.90
4985;DHT22;2509;49.902;8.600;2022-09-09T19:27:34;15.60;99.90
4985;DHT22;2509;49.902;8.600;2022-09-09T19:30:36;15.40;99.90
4985;DHT22;2509;49.902;8.600;2022-09-09T19:33:38;15.30;99.90
4985;DHT22;2509;49.902;8.600;2022-09-09T19:36:42;15.30;99.90
4985;DHT22;2509;49.902;8.600;2022-09-09T19:39:46;15.30;99.90
4985;DHT22;2509;49.902;8.600;2022-09-09T19:42:48;15.10;99.90
4985;DHT22;2509;49.902;8.600;2022-09-09T19:45:57;15.10;99.90
4985;DHT22;2509;49.902;8.600;2022-09-09T19:48:59;15.00;99.90
4985;DHT22;2509;49.902;8.600;2022-09-09T19:52:01;14.90;99.90
4985;DHT22;2509;49.902;8.600;2022-09-09T19:55:05;14.90;99.90
4985;DHT22;2509;49.902;8.600;2022-09-09T19:58:07;14.90;99.90
4985;DHT22;2509;49.902;8.600;2022-09-09T20:01:10;14.90;99.90
4985;DHT22;2509;49.902;8.600;2022-09-09T20:04:13;14.90;99.90
4985;DHT22;2509;49.902;8.600;2022-09-09T20:07:18;15.00;99.90
4985;DHT22;2509;49.902;8.600;2022-09-09T20:10:21;15.00;99.90
4985;DHT22;2509;49.902;8.600;2022-09-09T20:13:22;15.00;99.90
4985;DHT22;2509;49.902;8.600;2022-09-09T20:16:27;15.00;99.90
4985;DHT22;2509;49.902;8.600;2022-09-09T20:19:29;15.00;99.90